sensor_id;sensor_type;location;lat;lon;timestamp;temperature;humidity
20610;DHT22;10463;52.378;9.688;2022-10-31T00:01:53;30.60;29.20
20610;DHT22;10463;52.378;9.688;2022-10-31T00:04:39;30.60;29.20
20610;DHT22;10463;52.378;9.688;2022-10-31T00:07:23;30.60;29.10
20610;DHT22;10463;52.378;9.688;2022-10-31T00:10:09;30.50;29.00
20610;DHT22;10463;52.378;9.688;2022-10-31T00:12:54;30.60;29.10
20610;DHT22;10463;52.378;9.688;2022-10-31T00:15:40;30.50;29.00
20610;DHT22;10463;52.378;9.688;2022-10-31T00:18:25;30.50;29.00
20610;DHT22;10463;52.378;9.688;2022-10-31T00:21:11;30.50;28.90
20610;DHT22;10463;52.378;9.688;2022-10-31T00:23:56;30.50;28.90
20610;DHT22;10463;52.378;9.688;2022-10-31T00:26:41;30.50;28.90
20610;DHT22;10463;52.378;9.688;2022-10-31T00:29:26;30.50;28.90
20610;DHT22;10463;52.378;9.688;2022-10-31T00:32:10;30.50;28.90
20610;DHT22;10463;52.378;9.688;2022-10-31T00:34:55;30.50;28.90
20610;DHT22;10463;52.378;9.688;2022-10-31T00:37:41;30.50;28.80
20610;DHT22;10463;52.378;9.688;2022-10-31T00:40:26;30.40;28.80
20610;DHT22;10463;52.378;9.688;2022-10-31T00:43:11;30.40;28.70
20610;DHT22;10463;52.378;9.688;2022-10-31T00:45:56;30.40;29.30
20610;DHT22;10463;52.378;9.688;2022-10-31T00:48:42;30.40;28.80
20610;DHT22;10463;52.378;9.688;2022-10-31T00:51:27;30.40;28.70
20610;DHT22;10463;52.378;9.688;2022-10-31T00:54:13;30.30;28.70
20610;DHT22;10463;52.378;9.688;2022-10-31T00:56:58;30.40;28.80
20610;DHT22;10463;52.378;9.688;2022-10-31T00:59:43;30.30;28.70
20610;DHT22;10463;52.378;9.688;2022-10-31T01:02:27;30.30;28.70
20610;DHT22;10463;52.378;9.688;2022-10-31T01:05:13;30.20;28.60
20610;DHT22;10463;52.378;9.688;2022-10-31T01:07:58;30.20;28.60
20610;DHT22;10463;52.378;9.688;2022-10-31T01:10:46;30.20;28.60
20610;DHT22;10463;52.378;9.688;2022-10-31T01:13:31;30.20;29.10
20610;DHT22;10463;52.378;9.688;2022-10-31T01:16:18;30.10;28.50
20610;DHT22;10463;52.378;9.688;2022-10-31T01:19:03;30.00;28.50
20610;DHT22;10463;52.378;9.688;2022-10-31T01:21:47;30.00;28.50
20610;DHT22;10463;52.378;9.688;2022-10-31T01:24:32;30.00;28.50
20610;DHT22;10463;52.378;9.688;2022-10-31T01:27:18;29.90;29.00
20610;DHT22;10463;52.378;9.688;2022-10-31T01:30:06;29.90;28.50
20610;DHT22;10463;52.378;9.688;2022-10-31T01:32:50;29.80;28.60
20610;DHT22;10463;52.378;9.688;2022-10-31T01:35:35;29.80;28.60
20610;DHT22;10463;52.378;9.688;2022-10-31T01:38:20;29.80;28.60
20610;DHT22;10463;52.378;9.688;2022-10-31T01:41:04;29.70;28.60
20610;DHT22;10463;52.378;9.688;2022-10-31T01:43:55;29.70;28.70
20610;DHT22;10463;52.378;9.688;2022-10-31T01:46:43;29.70;28.70
20610;DHT22;10463;52.378;9.688;2022-10-31T01:49:33;29.70;28.80
20610;DHT22;10463;52.378;9.688;2022-10-31T01:52:22;29.60;28.70
20610;DHT22;10463;52.378;9.688;2022-10-31T01:55:13;29.60;28.80
20610;DHT22;10463;52.378;9.688;2022-10-31T01:58:04;29.60;28.80
20610;DHT22;10463;52.378;9.688;2022-10-31T02:00:55;29.60;28.90
20610;DHT22;10463;52.378;9.688;2022-10-31T02:03:41;29.50;29.40
20610;DHT22;10463;52.378;9.688;2022-10-31T02:06:35;29.60;28.90
20610;DHT22;10463;52.378;9.688;2022-10-31T02:09:20;29.50;28.90
20610;DHT22;10463;52.378;9.688;2022-10-31T02:12:10;29.50;29.00
20610;DHT22;10463;52.378;9.688;2022-10-31T02:14:55;29.50;29.00
20610;DHT22;10463;52.378;9.688;2022-10-31T02:17:42;29.50;29.00
20610;DHT22;10463;52.378;9.688;2022-10-31T02:20:32;29.50;29.00
20610;DHT22;10463;52.378;9.688;2022-10-31T02:24:29;29.50;29.10
20610;DHT22;10463;52.378;9.688;2022-10-31T02:27:40;29.40;29.00
20610;DHT22;10463;52.378;9.688;2022-10-31T02:30:35;29.40;29.00
20610;DHT22;10463;52.378;9.688;2022-10-31T02:33:26;29.40;29.00
20610;DHT22;10463;52.378;9.688;2022-10-31T02:36:19;29.40;29.00
20610;DHT22;10463;52.378;9.688;2022-10-31T02:39:11;29.40;29.00
20610;DHT22;10463;52.378;9.688;2022-10-31T02:42:07;29.40;29.00
20610;DHT22;10463;52.378;9.688;2022-10-31T02:45:01;29.40;29.00
20610;DHT22;10463;52.378;9.688;2022-10-31T02:47:50;29.40;29.00
20610;DHT22;10463;52.378;9.688;2022-10-31T02:50:42;29.40;29.00
20610;DHT22;10463;52.378;9.688;2022-10-31T02:53:32;29.40;29.00
20610;DHT22;10463;52.378;9.688;2022-10-31T02:56:19;29.40;29.00
20610;DHT22;10463;52.378;9.688;2022-10-31T02:59:04;29.40;29.00
20610;DHT22;10463;52.378;9.688;2022-10-31T03:05:29;29.30;29.00
20610;DHT22;10463;52.378;9.688;2022-10-31T03:08:24;29.30;29.10
20610;DHT22;10463;52.378;9.688;2022-10-31T03:11:13;29.30;29.10
20610;DHT22;10463;52.378;9.688;2022-10-31T03:14:06;29.30;29.10
20610;DHT22;10463;52.378;9.688;2022-10-31T03:16:55;29.30;29.10
20610;DHT22;10463;52.378;9.688;2022-10-31T03:19:46;29.30;29.10
20610;DHT22;10463;52.378;9.688;2022-10-31T03:22:33;29.20;29.10
20610;DHT22;10463;52.378;9.688;2022-10-31T03:25:20;29.20;29.00
20610;DHT22;10463;52.378;9.688;2022-10-31T03:28:06;29.30;29.10
20610;DHT22;10463;52.378;9.688;2022-10-31T03:30:52;29.20;29.10
20610;DHT22;10463;52.378;9.688;2022-10-31T03:33:39;29.30;29.70
20610;DHT22;10463;52.378;9.688;2022-10-31T03:36:26;29.30;29.10
20610;DHT22;10463;52.378;9.688;2022-10-31T03:39:13;29.20;29.10
20610;DHT22;10463;52.378;9.688;2022-10-31T03:42:06;29.20;29.00
20610;DHT22;10463;52.378;9.688;2022-10-31T03:44:57;29.20;29.00
20610;DHT22;10463;52.378;9.688;2022-10-31T03:47:45;29.20;29.00
20610;DHT22;10463;52.378;9.688;2022-10-31T03:50:50;29.20;29.10
20610;DHT22;10463;52.378;9.688;2022-10-31T03:53:42;29.20;29.10
20610;DHT22;10463;52.378;9.688;2022-10-31T03:56:37;29.20;29.10
20610;DHT22;10463;52.378;9.688;2022-10-31T03:59:30;29.20;29.00
20610;DHT22;10463;52.378;9.688;2022-10-31T04:02:21;29.20;29.10
20610;DHT22;10463;52.378;9.688;2022-10-31T04:05:09;29.20;29.00
20610;DHT22;10463;52.378;9.688;2022-10-31T04:07:56;29.20;29.00
20610;DHT22;10463;52.378;9.688;2022-10-31T04:10:44;29.10;29.00
20610;DHT22;10463;52.378;9.688;2022-10-31T04:13:34;29.10;29.00
20610;DHT22;10463;52.378;9.688;2022-10-31T04:16:28;29.10;29.00
20610;DHT22;10463;52.378;9.688;2022-10-31T04:19:14;29.10;29.00
20610;DHT22;10463;52.378;9.688;2022-10-31T04:21:59;29.10;29.00
20610;DHT22;10463;52.378;9.688;2022-10-31T04:24:44;29.10;29.00
20610;DHT22;10463;52.378;9.688;2022-10-31T04:27:32;29.10;29.00
20610;DHT22;10463;52.378;9.688;2022-10-31T04:30:16;29.00;29.00
20610;DHT22;10463;52.378;9.688;2022-10-31T04:33:03;29.00;29.00
20610;DHT22;10463;52.378;9.688;2022-10-31T04:35:48;29.10;29.10
20610;DHT22;10463;52.378;9.688;2022-10-31T04:38:33;29.00;29.00
20610;DHT22;10463;52.378;9.688;2022-10-31T04:41:18;29.00;29.10
20610;DHT22;10463;52.378;9.688;2022-10-31T04:44:10;29.00;29.10
20610;DHT22;10463;52.378;9.688;2022-10-31T04:46:55;29.00;29.10
20610;DHT22;10463;52.378;9.688;2022-10-31T04:49:42;29.00;29.10
20610;DHT22;10463;52.378;9.688;2022-10-31T04:52:30;29.00;29.10
20610;DHT22;10463;52.378;9.688;2022-10-31T04:55:15;29.00;29.10
20610;DHT22;10463;52.378;9.688;2022-10-31T04:58:19;29.00;29.20
20610;DHT22;10463;52.378;9.688;2022-10-31T05:01:03;29.00;29.20
20610;DHT22;10463;52.378;9.688;2022-10-31T05:03:48;29.00;29.80
20610;DHT22;10463;52.378;9.688;2022-10-31T05:06:34;29.00;29.20
20610;DHT22;10463;52.378;9.688;2022-10-31T05:09:19;28.90;29.20
20610;DHT22;10463;52.378;9.688;2022-10-31T05:12:04;28.90;29.30
20610;DHT22;10463;52.378;9.688;2022-10-31T05:15:10;28.90;29.20
20610;DHT22;10463;52.378;9.688;2022-10-31T05:18:13;28.90;29.20
20610;DHT22;10463;52.378;9.688;2022-10-31T05:21:10;28.90;29.30
20610;DHT22;10463;52.378;9.688;2022-10-31T05:24:03;28.90;29.20
20610;DHT22;10463;52.378;9.688;2022-10-31T05:26:49;28.90;29.20
20610;DHT22;10463;52.378;9.688;2022-10-31T05:29:34;28.90;29.30
20610;DHT22;10463;52.378;9.688;2022-10-31T05:32:21;28.90;29.20
20610;DHT22;10463;52.378;9.688;2022-10-31T05:35:27;28.90;29.20
20610;DHT22;10463;52.378;9.688;2022-10-31T05:38:30;28.90;29.20
20610;DHT22;10463;52.378;9.688;2022-10-31T05:41:21;28.80;29.10
20610;DHT22;10463;52.378;9.688;2022-10-31T05:44:07;28.80;29.10
20610;DHT22;10463;52.378;9.688;2022-10-31T05:47:02;28.80;29.10
20610;DHT22;10463;52.378;9.688;2022-10-31T05:50:17;28.80;29.10
20610;DHT22;10463;52.378;9.688;2022-10-31T05:53:16;28.80;29.10
20610;DHT22;10463;52.378;9.688;2022-10-31T05:56:01;28.80;29.10
20610;DHT22;10463;52.378;9.688;2022-10-31T05:58:48;28.80;29.20
20610;DHT22;10463;52.378;9.688;2022-10-31T06:01:33;28.70;29.10
20610;DHT22;10463;52.378;9.688;2022-10-31T06:04:23;28.70;29.10
20610;DHT22;10463;52.378;9.688;2022-10-31T06:07:08;28.70;29.20
20610;DHT22;10463;52.378;9.688;2022-10-31T06:09:56;28.70;29.20
20610;DHT22;10463;52.378;9.688;2022-10-31T06:12:41;28.70;29.70
20610;DHT22;10463;52.378;9.688;2022-10-31T06:15:53;28.70;29.20
20610;DHT22;10463;52.378;9.688;2022-10-31T06:18:41;28.70;29.20
20610;DHT22;10463;52.378;9.688;2022-10-31T06:21:27;28.70;29.20
20610;DHT22;10463;52.378;9.688;2022-10-31T06:24:12;28.70;29.20
20610;DHT22;10463;52.378;9.688;2022-10-31T06:27:24;28.70;29.20
20610;DHT22;10463;52.378;9.688;2022-10-31T06:30:10;28.70;29.30
20610;DHT22;10463;52.378;9.688;2022-10-31T06:33:03;28.60;29.20
20610;DHT22;10463;52.378;9.688;2022-10-31T06:35:48;28.60;29.20
20610;DHT22;10463;52.378;9.688;2022-10-31T06:38:33;28.60;29.20
20610;DHT22;10463;52.378;9.688;2022-10-31T06:41:18;28.60;29.20
20610;DHT22;10463;52.378;9.688;2022-10-31T06:44:07;28.60;29.20
20610;DHT22;10463;52.378;9.688;2022-10-31T06:47:21;28.60;29.30
20610;DHT22;10463;52.378;9.688;2022-10-31T06:50:25;28.60;29.30
20610;DHT22;10463;52.378;9.688;2022-10-31T06:53:11;28.60;29.20
20610;DHT22;10463;52.378;9.688;2022-10-31T06:55:56;28.60;29.20
20610;DHT22;10463;52.378;9.688;2022-10-31T06:58:41;28.60;29.20
20610;DHT22;10463;52.378;9.688;2022-10-31T07:01:27;28.60;29.30
20610;DHT22;10463;52.378;9.688;2022-10-31T07:04:13;28.60;29.30
20610;DHT22;10463;52.378;9.688;2022-10-31T07:06:58;28.50;29.30
20610;DHT22;10463;52.378;9.688;2022-10-31T07:09:43;28.60;29.30
20610;DHT22;10463;52.378;9.688;2022-10-31T07:12:29;28.60;29.30
20610;DHT22;10463;52.378;9.688;2022-10-31T07:15:16;28.60;29.30
20610;DHT22;10463;52.378;9.688;2022-10-31T07:18:03;28.50;29.20
20610;DHT22;10463;52.378;9.688;2022-10-31T07:20:49;28.50;29.20
20610;DHT22;10463;52.378;9.688;2022-10-31T07:23:35;28.60;29.30
20610;DHT22;10463;52.378;9.688;2022-10-31T07:26:39;28.60;29.30
20610;DHT22;10463;52.378;9.688;2022-10-31T07:29:23;28.50;29.30
20610;DHT22;10463;52.378;9.688;2022-10-31T07:32:08;28.50;29.30
20610;DHT22;10463;52.378;9.688;2022-10-31T07:34:56;28.50;29.30
20610;DHT22;10463;52.378;9.688;2022-10-31T07:37:48;28.50;29.30
20610;DHT22;10463;52.378;9.688;2022-10-31T07:40:35;28.50;29.30
20610;DHT22;10463;52.378;9.688;2022-10-31T07:43:21;28.50;29.30
20610;DHT22;10463;52.378;9.688;2022-10-31T07:46:29;28.50;29.40
20610;DHT22;10463;52.378;9.688;2022-10-31T07:49:49;28.50;29.40
20610;DHT22;10463;52.378;9.688;2022-10-31T07:53:01;28.50;29.40
20610;DHT22;10463;52.378;9.688;2022-10-31T07:56:08;28.50;29.40
20610;DHT22;10463;52.378;9.688;2022-10-31T07:58:52;28.50;29.50
20610;DHT22;10463;52.378;9.688;2022-10-31T08:01:37;28.50;29.50
20610;DHT22;10463;52.378;9.688;2022-10-31T08:04:42;28.50;29.40
20610;DHT22;10463;52.378;9.688;2022-10-31T08:07:53;28.50;29.40
20610;DHT22;10463;52.378;9.688;2022-10-31T08:10:40;28.50;29.40
20610;DHT22;10463;52.378;9.688;2022-10-31T08:13:27;28.50;29.40
20610;DHT22;10463;52.378;9.688;2022-10-31T08:16:12;28.40;29.30
20610;DHT22;10463;52.378;9.688;2022-10-31T08:19:08;28.40;29.30
20610;DHT22;10463;52.378;9.688;2022-10-31T08:21:57;28.40;29.40
20610;DHT22;10463;52.378;9.688;2022-10-31T08:24:42;28.40;29.40
20610;DHT22;10463;52.378;9.688;2022-10-31T08:27:27;28.50;29.50
20610;DHT22;10463;52.378;9.688;2022-10-31T08:30:17;28.50;29.50
20610;DHT22;10463;52.378;9.688;2022-10-31T08:33:15;28.50;29.50
20610;DHT22;10463;52.378;9.688;2022-10-31T08:36:20;28.50;29.50
20610;DHT22;10463;52.378;9.688;2022-10-31T08:39:11;28.50;29.50
20610;DHT22;10463;52.378;9.688;2022-10-31T08:41:57;28.50;29.50
20610;DHT22;10463;52.378;9.688;2022-10-31T08:44:41;28.50;29.50
20610;DHT22;10463;52.378;9.688;2022-10-31T08:47:28;28.60;29.60
20610;DHT22;10463;52.378;9.688;2022-10-31T08:50:14;28.60;29.60
20610;DHT22;10463;52.378;9.688;2022-10-31T08:53:03;28.60;29.60
20610;DHT22;10463;52.378;9.688;2022-10-31T08:55:48;28.60;29.60
20610;DHT22;10463;52.378;9.688;2022-10-31T08:58:43;28.60;29.50
20610;DHT22;10463;52.378;9.688;2022-10-31T09:01:29;28.60;29.50
20610;DHT22;10463;52.378;9.688;2022-10-31T09:04:16;28.60;29.60
20610;DHT22;10463;52.378;9.688;2022-10-31T09:07:01;28.60;29.60
20610;DHT22;10463;52.378;9.688;2022-10-31T09:09:46;28.70;29.60
20610;DHT22;10463;52.378;9.688;2022-10-31T09:12:31;28.70;29.60
20610;DHT22;10463;52.378;9.688;2022-10-31T09:15:36;28.70;29.70
20610;DHT22;10463;52.378;9.688;2022-10-31T09:18:36;28.80;29.70
20610;DHT22;10463;52.378;9.688;2022-10-31T09:21:22;28.80;29.70
20610;DHT22;10463;52.378;9.688;2022-10-31T09:24:08;28.80;29.70
20610;DHT22;10463;52.378;9.688;2022-10-31T09:26:52;28.80;29.70
20610;DHT22;10463;52.378;9.688;2022-10-31T09:29:45;28.90;29.80
20610;DHT22;10463;52.378;9.688;2022-10-31T09:32:31;28.90;29.70
20610;DHT22;10463;52.378;9.688;2022-10-31T09:35:16;28.90;29.70
20610;DHT22;10463;52.378;9.688;2022-10-31T09:38:05;28.90;29.70
20610;DHT22;10463;52.378;9.688;2022-10-31T09:41:16;28.90;29.60
20610;DHT22;10463;52.378;9.688;2022-10-31T09:44:10;28.90;29.70
20610;DHT22;10463;52.378;9.688;2022-10-31T09:47:08;28.90;29.70
20610;DHT22;10463;52.378;9.688;2022-10-31T09:50:14;29.00;29.70
20610;DHT22;10463;52.378;9.688;2022-10-31T09:53:09;29.00;29.70
20610;DHT22;10463;52.378;9.688;2022-10-31T09:55:55;29.00;29.60
20610;DHT22;10463;52.378;9.688;2022-10-31T09:58:45;29.00;29.60
20610;DHT22;10463;52.378;9.688;2022-10-31T10:01:38;29.00;29.50
20610;DHT22;10463;52.378;9.688;2022-10-31T10:04:38;29.00;29.50
20610;DHT22;10463;52.378;9.688;2022-10-31T10:07:48;29.00;30.00
20610;DHT22;10463;52.378;9.688;2022-10-31T10:11:01;29.00;29.50
20610;DHT22;10463;52.378;9.688;2022-10-31T10:14:30;29.00;29.50
20610;DHT22;10463;52.378;9.688;2022-10-31T10:17:30;29.00;29.50
20610;DHT22;10463;52.378;9.688;2022-10-31T10:20:26;29.10;29.60
20610;DHT22;10463;52.378;9.688;2022-10-31T10:23:34;29.10;30.00
20610;DHT22;10463;52.378;9.688;2022-10-31T10:26:24;29.10;29.50
20610;DHT22;10463;52.378;9.688;2022-10-31T10:29:32;29.10;29.60
20610;DHT22;10463;52.378;9.688;2022-10-31T10:32:23;29.10;29.60
20610;DHT22;10463;52.378;9.688;2022-10-31T10:35:19;29.10;29.60
20610;DHT22;10463;52.378;9.688;2022-10-31T10:38:15;29.10;29.60
20610;DHT22;10463;52.378;9.688;2022-10-31T10:41:06;29.10;29.60
20610;DHT22;10463;52.378;9.688;2022-10-31T10:43:55;29.10;29.60
20610;DHT22;10463;52.378;9.688;2022-10-31T10:46:42;29.10;29.60
20610;DHT22;10463;52.378;9.688;2022-10-31T10:49:51;29.10;29.60
20610;DHT22;10463;52.378;9.688;2022-10-31T10:52:53;29.10;29.60
20610;DHT22;10463;52.378;9.688;2022-10-31T10:55:49;29.20;29.60
20610;DHT22;10463;52.378;9.688;2022-10-31T10:58:35;29.20;29.60
20610;DHT22;10463;52.378;9.688;2022-10-31T11:01:23;29.10;29.50
20610;DHT22;10463;52.378;9.688;2022-10-31T11:04:25;29.20;29.50
20610;DHT22;10463;52.378;9.688;2022-10-31T11:07:11;29.20;29.50
20610;DHT22;10463;52.378;9.688;2022-10-31T11:10:04;29.20;29.60
20610;DHT22;10463;52.378;9.688;2022-10-31T11:13:05;29.20;29.60
20610;DHT22;10463;52.378;9.688;2022-10-31T11:15:57;29.20;29.60
20610;DHT22;10463;52.378;9.688;2022-10-31T11:18:46;29.20;29.60
20610;DHT22;10463;52.378;9.688;2022-10-31T11:21:31;29.20;29.70
20610;DHT22;10463;52.378;9.688;2022-10-31T11:24:21;29.20;29.70
20610;DHT22;10463;52.378;9.688;2022-10-31T11:27:14;29.20;29.70
20610;DHT22;10463;52.378;9.688;2022-10-31T11:30:09;29.30;29.80
20610;DHT22;10463;52.378;9.688;2022-10-31T11:32:54;29.20;29.80
20610;DHT22;10463;52.378;9.688;2022-10-31T11:35:40;29.30;29.80
20610;DHT22;10463;52.378;9.688;2022-10-31T11:38:33;29.30;29.80
20610;DHT22;10463;52.378;9.688;2022-10-31T11:41:24;29.30;29.80
20610;DHT22;10463;52.378;9.688;2022-10-31T11:44:16;29.30;29.80
20610;DHT22;10463;52.378;9.688;2022-10-31T11:47:03;29.40;29.80
20610;DHT22;10463;52.378;9.688;2022-10-31T11:49:50;29.40;29.80
20610;DHT22;10463;52.378;9.688;2022-10-31T11:52:38;29.40;29.80
20610;DHT22;10463;52.378;9.688;2022-10-31T11:55:36;29.40;29.80
20610;DHT22;10463;52.378;9.688;2022-10-31T11:58:23;29.40;29.80
20610;DHT22;10463;52.378;9.688;2022-10-31T12:01:24;29.40;29.70
20610;DHT22;10463;52.378;9.688;2022-10-31T12:04:12;29.40;29.70
20610;DHT22;10463;52.378;9.688;2022-10-31T12:06:57;29.40;29.70
20610;DHT22;10463;52.378;9.688;2022-10-31T12:09:44;29.50;29.70
20610;DHT22;10463;52.378;9.688;2022-10-31T12:12:48;29.50;29.70
20610;DHT22;10463;52.378;9.688;2022-10-31T12:15:38;29.50;29.70
20610;DHT22;10463;52.378;9.688;2022-10-31T12:18:43;29.50;29.70
20610;DHT22;10463;52.378;9.688;2022-10-31T12:21:55;29.50;29.60
20610;DHT22;10463;52.378;9.688;2022-10-31T12:25:05;29.50;29.60
20610;DHT22;10463;52.378;9.688;2022-10-31T12:31:19;29.50;29.60
20610;DHT22;10463;52.378;9.688;2022-10-31T12:34:30;29.60;29.60
20610;DHT22;10463;52.378;9.688;2022-10-31T12:37:31;29.60;29.60
20610;DHT22;10463;52.378;9.688;2022-10-31T12:40:45;29.60;29.60
20610;DHT22;10463;52.378;9.688;2022-10-31T12:43:43;29.60;29.60
20610;DHT22;10463;52.378;9.688;2022-10-31T12:46:49;29.60;29.60
20610;DHT22;10463;52.378;9.688;2022-10-31T12:49:57;29.60;29.60
20610;DHT22;10463;52.378;9.688;2022-10-31T12:52:56;29.60;29.60
20610;DHT22;10463;52.378;9.688;2022-10-31T12:55:55;29.70;29.70
20610;DHT22;10463;52.378;9.688;2022-10-31T12:58:47;29.70;29.70
20610;DHT22;10463;52.378;9.688;2022-10-31T13:01:38;29.70;29.70
20610;DHT22;10463;52.378;9.688;2022-10-31T13:04:40;29.70;29.60
20610;DHT22;10463;52.378;9.688;2022-10-31T13:07:31;29.70;29.60
20610;DHT22;10463;52.378;9.688;2022-10-31T13:10:24;29.70;29.60
20610;DHT22;10463;52.378;9.688;2022-10-31T13:13:18;29.80;29.60
20610;DHT22;10463;52.378;9.688;2022-10-31T13:16:10;29.80;29.60
20610;DHT22;10463;52.378;9.688;2022-10-31T13:19:00;29.80;29.60
20610;DHT22;10463;52.378;9.688;2022-10-31T13:21:55;29.80;29.60
20610;DHT22;10463;52.378;9.688;2022-10-31T13:24:46;29.80;29.60
20610;DHT22;10463;52.378;9.688;2022-10-31T13:27:42;29.80;29.60
20610;DHT22;10463;52.378;9.688;2022-10-31T13:30:33;29.90;29.60
20610;DHT22;10463;52.378;9.688;2022-10-31T13:33:25;29.90;29.60
20610;DHT22;10463;52.378;9.688;2022-10-31T13:36:23;29.90;29.60
20610;DHT22;10463;52.378;9.688;2022-10-31T13:39:23;29.90;29.50
20610;DHT22;10463;52.378;9.688;2022-10-31T13:42:17;29.90;29.50
20610;DHT22;10463;52.378;9.688;2022-10-31T13:45:15;29.90;29.50
20610;DHT22;10463;52.378;9.688;2022-10-31T13:48:19;30.00;29.50
20610;DHT22;10463;52.378;9.688;2022-10-31T13:51:07;30.00;29.50
20610;DHT22;10463;52.378;9.688;2022-10-31T13:54:01;30.00;29.50
20610;DHT22;10463;52.378;9.688;2022-10-31T13:56:49;30.00;29.50
20610;DHT22;10463;52.378;9.688;2022-10-31T13:59:37;30.00;29.50
20610;DHT22;10463;52.378;9.688;2022-10-31T14:02:26;30.00;29.40
20610;DHT22;10463;52.378;9.688;2022-10-31T14:05:23;30.00;29.50
20610;DHT22;10463;52.378;9.688;2022-10-31T14:08:21;30.10;29.50
20610;DHT22;10463;52.378;9.688;2022-10-31T14:11:08;30.00;29.40
20610;DHT22;10463;52.378;9.688;2022-10-31T14:13:54;30.10;29.40
20610;DHT22;10463;52.378;9.688;2022-10-31T14:16:44;30.10;29.40
20610;DHT22;10463;52.378;9.688;2022-10-31T14:19:30;30.10;29.40
20610;DHT22;10463;52.378;9.688;2022-10-31T14:22:21;30.10;29.40
20610;DHT22;10463;52.378;9.688;2022-10-31T14:25:40;30.10;29.30
20610;DHT22;10463;52.378;9.688;2022-10-31T14:28:33;30.10;29.30
20610;DHT22;10463;52.378;9.688;2022-10-31T14:31:36;30.10;29.30
20610;DHT22;10463;52.378;9.688;2022-10-31T14:34:26;30.10;29.30
20610;DHT22;10463;52.378;9.688;2022-10-31T14:37:54;30.10;29.30
20610;DHT22;10463;52.378;9.688;2022-10-31T14:40:58;30.20;29.30
20610;DHT22;10463;52.378;9.688;2022-10-31T14:47:39;30.10;29.30
20610;DHT22;10463;52.378;9.688;2022-10-31T14:50:41;30.10;29.20
20610;DHT22;10463;52.378;9.688;2022-10-31T14:53:32;30.10;29.30
20610;DHT22;10463;52.378;9.688;2022-10-31T14:56:26;30.10;29.20
20610;DHT22;10463;52.378;9.688;2022-10-31T14:59:15;30.10;29.20
20610;DHT22;10463;52.378;9.688;2022-10-31T15:02:11;30.10;29.20
20610;DHT22;10463;52.378;9.688;2022-10-31T15:04:57;30.10;29.30
20610;DHT22;10463;52.378;9.688;2022-10-31T15:07:50;30.10;29.30
20610;DHT22;10463;52.378;9.688;2022-10-31T15:10:37;30.10;29.30
20610;DHT22;10463;52.378;9.688;2022-10-31T15:13:22;30.10;29.30
20610;DHT22;10463;52.378;9.688;2022-10-31T15:16:08;30.10;29.30
20610;DHT22;10463;52.378;9.688;2022-10-31T15:18:57;30.10;29.30
20610;DHT22;10463;52.378;9.688;2022-10-31T15:21:44;30.10;29.30
20610;DHT22;10463;52.378;9.688;2022-10-31T15:24:35;30.10;29.30
20610;DHT22;10463;52.378;9.688;2022-10-31T15:27:22;30.20;29.50
20610;DHT22;10463;52.378;9.688;2022-10-31T15:30:20;30.10;29.40
20610;DHT22;10463;52.378;9.688;2022-10-31T15:33:20;30.10;29.40
20610;DHT22;10463;52.378;9.688;2022-10-31T15:36:17;30.10;29.40
20610;DHT22;10463;52.378;9.688;2022-10-31T15:39:03;30.10;29.40
20610;DHT22;10463;52.378;9.688;2022-10-31T15:41:50;30.10;29.40
20610;DHT22;10463;52.378;9.688;2022-10-31T15:44:41;30.10;29.50
20610;DHT22;10463;52.378;9.688;2022-10-31T15:47:29;30.10;29.40
20610;DHT22;10463;52.378;9.688;2022-10-31T15:50:22;30.10;29.50
20610;DHT22;10463;52.378;9.688;2022-10-31T15:53:17;30.10;29.50
20610;DHT22;10463;52.378;9.688;2022-10-31T15:56:06;30.10;29.50
20610;DHT22;10463;52.378;9.688;2022-10-31T15:58:53;30.10;29.50
20610;DHT22;10463;52.378;9.688;2022-10-31T16:01:40;30.10;29.50
20610;DHT22;10463;52.378;9.688;2022-10-31T16:04:25;30.20;29.50
20610;DHT22;10463;52.378;9.688;2022-10-31T16:07:14;30.20;29.50
20610;DHT22;10463;52.378;9.688;2022-10-31T16:10:01;30.20;29.50
20610;DHT22;10463;52.378;9.688;2022-10-31T16:12:47;30.10;29.50
20610;DHT22;10463;52.378;9.688;2022-10-31T16:15:34;30.20;29.60
20610;DHT22;10463;52.378;9.688;2022-10-31T16:18:21;30.20;29.50
20610;DHT22;10463;52.378;9.688;2022-10-31T16:21:08;30.20;29.60
20610;DHT22;10463;52.378;9.688;2022-10-31T16:23:57;30.20;29.60
20610;DHT22;10463;52.378;9.688;2022-10-31T16:26:48;30.20;29.60
20610;DHT22;10463;52.378;9.688;2022-10-31T16:29:37;30.20;29.60
20610;DHT22;10463;52.378;9.688;2022-10-31T16:32:30;30.20;29.60
20610;DHT22;10463;52.378;9.688;2022-10-31T16:35:31;30.20;29.60
20610;DHT22;10463;52.378;9.688;2022-10-31T16:38:16;30.20;29.60
20610;DHT22;10463;52.378;9.688;2022-10-31T16:41:02;30.20;29.60
20610;DHT22;10463;52.378;9.688;2022-10-31T16:43:47;30.20;29.60
20610;DHT22;10463;52.378;9.688;2022-10-31T16:46:31;30.20;29.60
20610;DHT22;10463;52.378;9.688;2022-10-31T16:49:16;30.20;29.60
20610;DHT22;10463;52.378;9.688;2022-10-31T16:52:04;30.20;29.60
20610;DHT22;10463;52.378;9.688;2022-10-31T16:54:49;30.20;29.60
20610;DHT22;10463;52.378;9.688;2022-10-31T16:57:35;30.20;29.60
20610;DHT22;10463;52.378;9.688;2022-10-31T17:00:22;30.20;29.60
20610;DHT22;10463;52.378;9.688;2022-10-31T17:03:08;30.20;29.60
20610;DHT22;10463;52.378;9.688;2022-10-31T17:05:54;30.20;29.60
20610;DHT22;10463;52.378;9.688;2022-10-31T17:08:43;30.20;29.60
20610;DHT22;10463;52.378;9.688;2022-10-31T17:11:28;30.30;29.60
20610;DHT22;10463;52.378;9.688;2022-10-31T17:14:14;30.20;29.60
20610;DHT22;10463;52.378;9.688;2022-10-31T17:17:03;30.20;29.50
20610;DHT22;10463;52.378;9.688;2022-10-31T17:19:48;30.20;29.60
20610;DHT22;10463;52.378;9.688;2022-10-31T17:22:32;30.20;29.50
20610;DHT22;10463;52.378;9.688;2022-10-31T17:25:21;30.20;29.60
20610;DHT22;10463;52.378;9.688;2022-10-31T17:28:10;30.20;29.50
20610;DHT22;10463;52.378;9.688;2022-10-31T17:30:56;30.20;29.60
20610;DHT22;10463;52.378;9.688;2022-10-31T17:33:42;30.30;29.60
20610;DHT22;10463;52.378;9.688;2022-10-31T17:36:27;30.20;29.50
20610;DHT22;10463;52.378;9.688;2022-10-31T17:39:11;30.30;29.60
20610;DHT22;10463;52.378;9.688;2022-10-31T17:41:57;30.20;29.60
20610;DHT22;10463;52.378;9.688;2022-10-31T17:44:42;30.20;29.60
20610;DHT22;10463;52.378;9.688;2022-10-31T17:47:26;30.20;29.50
20610;DHT22;10463;52.378;9.688;2022-10-31T17:50:11;30.20;29.50
20610;DHT22;10463;52.378;9.688;2022-10-31T17:52:57;30.20;29.50
20610;DHT22;10463;52.378;9.688;2022-10-31T17:55:42;30.20;29.50
20610;DHT22;10463;52.378;9.688;2022-10-31T17:58:28;30.30;29.60
20610;DHT22;10463;52.378;9.688;2022-10-31T18:01:15;30.20;29.50
20610;DHT22;10463;52.378;9.688;2022-10-31T18:04:00;30.20;29.50
20610;DHT22;10463;52.378;9.688;2022-10-31T18:06:45;30.20;29.50
20610;DHT22;10463;52.378;9.688;2022-10-31T18:09:32;30.20;29.50
20610;DHT22;10463;52.378;9.688;2022-10-31T18:12:16;30.20;29.60